ABQ208 OPKC-OPIS
Flight info
| Callsign | ABQ208 |
|---|---|
| Flight time | 1h 54m |
| Altitude | 37000 |
| Route | BADUL J112 NH Z301 BELKO |
| Aircraft | A320/M-SDE3FGHIRWY/LB1 |
Departure
| Time | 2026-04-28 07:32 |
|---|---|
| Airport | Jinnah International Airport (OPKC) |
Arrival
| Time | 2026-04-28 09:26 |
|---|---|
| Airport | Islamabad International Airport (OPIS) |
| Time | Latitude | Longitude | Altitude | Speed | Heading |
|---|---|---|---|---|---|
| 2026-04-28 06:20 | 24.90107 | 67.16548 | 101 ft | 0 kts | 45° |
| 2026-04-28 07:20 | 24.90099 | 67.16539 | 101 ft | 4 kts | 43° |
| 2026-04-28 07:20 | 24.90079 | 67.16520 | 100 ft | 4 kts | 37° |
| 2026-04-28 07:21 | 24.90056 | 67.16505 | 99 ft | 4 kts | 14° |
| 2026-04-28 07:21 | 24.90036 | 67.16506 | 100 ft | 2 kts | 306° |
| 2026-04-28 07:21 | 24.90035 | 67.16508 | 100 ft | 0 kts | 304° |
| 2026-04-28 07:26 | 24.90037 | 67.16504 | 100 ft | 2 kts | 304° |
| 2026-04-28 07:26 | 24.90059 | 67.16472 | 101 ft | 8 kts | 311° |
| 2026-04-28 07:26 | 24.90121 | 67.16429 | 101 ft | 13 kts | 339° |
| 2026-04-28 07:27 | 24.90225 | 67.16395 | 101 ft | 17 kts | 345° |
| 2026-04-28 07:27 | 24.90330 | 67.16362 | 102 ft | 9 kts | 344° |
| 2026-04-28 07:27 | 24.90392 | 67.16378 | 102 ft | 11 kts | 49° |
| 2026-04-28 07:27 | 24.90416 | 67.16458 | 101 ft | 12 kts | 75° |
| 2026-04-28 07:28 | 24.90441 | 67.16557 | 101 ft | 15 kts | 74° |
| 2026-04-28 07:28 | 24.90470 | 67.16675 | 100 ft | 17 kts | 75° |
| 2026-04-28 07:28 | 24.90500 | 67.16795 | 101 ft | 16 kts | 75° |
| 2026-04-28 07:28 | 24.90529 | 67.16909 | 100 ft | 16 kts | 74° |
| 2026-04-28 07:29 | 24.90558 | 67.17023 | 102 ft | 15 kts | 74° |
| 2026-04-28 07:29 | 24.90585 | 67.17128 | 100 ft | 14 kts | 73° |
| 2026-04-28 07:29 | 24.90612 | 67.17228 | 102 ft | 13 kts | 73° |
| 2026-04-28 07:29 | 24.90637 | 67.17326 | 102 ft | 13 kts | 73° |
| 2026-04-28 07:30 | 24.90674 | 67.17408 | 102 ft | 11 kts | 51° |
| 2026-04-28 07:30 | 24.90730 | 67.17452 | 103 ft | 9 kts | 29° |
| 2026-04-28 07:30 | 24.90777 | 67.17481 | 104 ft | 7 kts | 28° |
| 2026-04-28 07:30 | 24.90836 | 67.17483 | 106 ft | 10 kts | 342° |
| 2026-04-28 07:31 | 24.90860 | 67.17417 | 107 ft | 12 kts | 257° |
| 2026-04-28 07:31 | 24.90835 | 67.17316 | 107 ft | 16 kts | 253° |
| 2026-04-28 07:31 | 24.90781 | 67.17122 | 105 ft | 54 kts | 252° |
| 2026-04-28 07:31 | 24.90616 | 67.16485 | 103 ft | 116 kts | 253° |
| 2026-04-28 07:32 | 24.90349 | 67.15459 | 117 ft | 160 kts | 253° |
| 2026-04-28 07:32 | 24.90113 | 67.14278 | 742 ft | 156 kts | 255° |
| 2026-04-28 07:32 | 24.89920 | 67.13095 | 1352 ft | 158 kts | 266° |
| 2026-04-28 07:32 | 24.90308 | 67.11974 | 1905 ft | 173 kts | 312° |
| 2026-04-28 07:33 | 24.91519 | 67.11464 | 2210 ft | 207 kts | 351° |
| 2026-04-28 07:33 | 24.93023 | 67.11854 | 2443 ft | 240 kts | 29° |
| 2026-04-28 07:33 | 24.94428 | 67.13036 | 2671 ft | 266 kts | 37° |
| 2026-04-28 07:33 | 24.95883 | 67.14430 | 3104 ft | 284 kts | 40° |
| 2026-04-28 07:34 | 24.97360 | 67.15908 | 3772 ft | 290 kts | 40° |
| 2026-04-28 07:34 | 24.98833 | 67.17391 | 4529 ft | 290 kts | 38° |
| 2026-04-28 07:34 | 25.00335 | 67.18892 | 5264 ft | 290 kts | 39° |
| 2026-04-28 07:34 | 25.01848 | 67.20386 | 5988 ft | 293 kts | 37° |
| 2026-04-28 07:35 | 25.03385 | 67.21890 | 6614 ft | 296 kts | 38° |
| 2026-04-28 07:35 | 25.04924 | 67.23388 | 7256 ft | 299 kts | 39° |
| 2026-04-28 07:35 | 25.06509 | 67.24930 | 7900 ft | 304 kts | 40° |
| 2026-04-28 07:35 | 25.08105 | 67.26484 | 8527 ft | 308 kts | 39° |
| 2026-04-28 07:36 | 25.09695 | 67.28034 | 9245 ft | 308 kts | 40° |
| 2026-04-28 07:36 | 25.11307 | 67.29603 | 9921 ft | 312 kts | 39° |
| 2026-04-28 07:36 | 25.12991 | 67.31239 | 10102 ft | 333 kts | 40° |
| 2026-04-28 07:36 | 25.14787 | 67.32982 | 10282 ft | 352 kts | 39° |
| 2026-04-28 07:37 | 25.16642 | 67.34790 | 10781 ft | 359 kts | 40° |
| 2026-04-28 07:37 | 25.18528 | 67.36635 | 11287 ft | 365 kts | 39° |
| 2026-04-28 07:37 | 25.20416 | 67.38479 | 11877 ft | 368 kts | 40° |
| 2026-04-28 07:37 | 25.22346 | 67.40362 | 12477 ft | 372 kts | 39° |
| 2026-04-28 07:38 | 25.24299 | 67.42270 | 13059 ft | 376 kts | 40° |
| 2026-04-28 07:38 | 25.26265 | 67.44192 | 13659 ft | 378 kts | 40° |
| 2026-04-28 07:38 | 25.28239 | 67.46124 | 14240 ft | 380 kts | 39° |
| 2026-04-28 07:38 | 25.30231 | 67.48073 | 14753 ft | 384 kts | 39° |
| 2026-04-28 07:39 | 25.32208 | 67.50007 | 15336 ft | 385 kts | 39° |
| 2026-04-28 07:39 | 25.34223 | 67.51981 | 15899 ft | 387 kts | 38° |
| 2026-04-28 07:39 | 25.36249 | 67.53967 | 16435 ft | 390 kts | 39° |
| 2026-04-28 07:39 | 25.38292 | 67.55971 | 16978 ft | 393 kts | 38° |
| 2026-04-28 07:40 | 25.40349 | 67.57989 | 17505 ft | 396 kts | 38° |
| 2026-04-28 07:40 | 25.42424 | 67.60027 | 18031 ft | 399 kts | 37° |
| 2026-04-28 07:40 | 25.44510 | 67.62074 | 18497 ft | 402 kts | 37° |
| 2026-04-28 07:40 | 25.46584 | 67.64111 | 18957 ft | 405 kts | 37° |
| 2026-04-28 07:41 | 25.48700 | 67.66191 | 19427 ft | 407 kts | 37° |
| 2026-04-28 07:41 | 25.50828 | 67.68290 | 19896 ft | 410 kts | 37° |
| 2026-04-28 07:41 | 25.52966 | 67.70397 | 20373 ft | 413 kts | 37° |
| 2026-04-28 07:41 | 25.55117 | 67.72517 | 20852 ft | 415 kts | 37° |
| 2026-04-28 07:42 | 25.57290 | 67.74657 | 21344 ft | 418 kts | 37° |
| 2026-04-28 07:42 | 25.59474 | 67.76804 | 21814 ft | 421 kts | 37° |
| 2026-04-28 07:42 | 25.61646 | 67.78938 | 22282 ft | 423 kts | 36° |
| 2026-04-28 07:42 | 25.63859 | 67.81113 | 22716 ft | 426 kts | 36° |
| 2026-04-28 07:43 | 25.66087 | 67.83309 | 23149 ft | 429 kts | 36° |
| 2026-04-28 07:43 | 25.68328 | 67.85522 | 23538 ft | 432 kts | 36° |
| 2026-04-28 07:43 | 25.70558 | 67.87726 | 23901 ft | 434 kts | 36° |
| 2026-04-28 07:43 | 25.72827 | 67.89969 | 24274 ft | 437 kts | 36° |
| 2026-04-28 07:44 | 25.75111 | 67.92226 | 24609 ft | 440 kts | 36° |
| 2026-04-28 07:44 | 25.77400 | 67.94491 | 24931 ft | 442 kts | 36° |
| 2026-04-28 07:44 | 25.79705 | 67.96774 | 25263 ft | 445 kts | 36° |
| 2026-04-28 07:44 | 25.82019 | 67.99069 | 25597 ft | 447 kts | 36° |
| 2026-04-28 07:45 | 25.84320 | 68.01351 | 25920 ft | 449 kts | 36° |
| 2026-04-28 07:45 | 25.86664 | 68.03675 | 26232 ft | 451 kts | 36° |
| 2026-04-28 07:45 | 25.89014 | 68.06005 | 26555 ft | 453 kts | 36° |
| 2026-04-28 07:45 | 25.91374 | 68.08349 | 26874 ft | 456 kts | 36° |
| 2026-04-28 07:46 | 25.93746 | 68.10708 | 27188 ft | 458 kts | 36° |
| 2026-04-28 07:46 | 25.96124 | 68.13071 | 27505 ft | 460 kts | 36° |
| 2026-04-28 07:46 | 25.98478 | 68.15407 | 27808 ft | 462 kts | 36° |
| 2026-04-28 07:46 | 26.00892 | 68.17802 | 28101 ft | 464 kts | 36° |
| 2026-04-28 07:47 | 26.03310 | 68.20207 | 28396 ft | 466 kts | 36° |
| 2026-04-28 07:47 | 26.05734 | 68.22621 | 28704 ft | 468 kts | 37° |
| 2026-04-28 07:47 | 26.08169 | 68.25047 | 28991 ft | 471 kts | 36° |
| 2026-04-28 07:47 | 26.10621 | 68.27490 | 29245 ft | 473 kts | 36° |
| 2026-04-28 07:48 | 26.13083 | 68.29948 | 29511 ft | 475 kts | 36° |
| 2026-04-28 07:48 | 26.15554 | 68.32416 | 29754 ft | 477 kts | 36° |
| 2026-04-28 07:48 | 26.17999 | 68.34862 | 29968 ft | 479 kts | 36° |
| 2026-04-28 07:48 | 26.20499 | 68.37321 | 30184 ft | 478 kts | 33° |
| 2026-04-28 07:49 | 26.23209 | 68.39433 | 30388 ft | 473 kts | 24° |
| 2026-04-28 07:49 | 26.26103 | 68.41178 | 30588 ft | 472 kts | 22° |
| 2026-04-28 07:49 | 26.29017 | 68.42899 | 30840 ft | 471 kts | 22° |
| 2026-04-28 07:49 | 26.31877 | 68.44594 | 31124 ft | 470 kts | 22° |
| 2026-04-28 07:50 | 26.34764 | 68.46311 | 31401 ft | 469 kts | 22° |
| 2026-04-28 07:50 | 26.37653 | 68.48034 | 31682 ft | 469 kts | 22° |
| 2026-04-28 07:50 | 26.40535 | 68.49752 | 31971 ft | 468 kts | 22° |
| 2026-04-28 07:50 | 26.43371 | 68.51439 | 32238 ft | 467 kts | 22° |
| 2026-04-28 07:51 | 26.46244 | 68.53147 | 32507 ft | 466 kts | 22° |
| 2026-04-28 07:51 | 26.49119 | 68.54855 | 32765 ft | 466 kts | 22° |
| 2026-04-28 07:51 | 26.51980 | 68.56557 | 33027 ft | 465 kts | 22° |
| 2026-04-28 07:51 | 26.54804 | 68.58242 | 33287 ft | 465 kts | 22° |
| 2026-04-28 07:52 | 26.57660 | 68.59945 | 33556 ft | 464 kts | 22° |
| 2026-04-28 07:52 | 26.60508 | 68.61643 | 33785 ft | 463 kts | 22° |
| 2026-04-28 07:52 | 26.63353 | 68.63343 | 33988 ft | 462 kts | 22° |
| 2026-04-28 07:52 | 26.66189 | 68.65040 | 34176 ft | 462 kts | 22° |
| 2026-04-28 07:53 | 26.69029 | 68.66737 | 34362 ft | 462 kts | 21° |
| 2026-04-28 07:53 | 26.71824 | 68.68407 | 34539 ft | 461 kts | 21° |
| 2026-04-28 07:53 | 26.77493 | 68.71791 | 34632 ft | 461 kts | 21° |
| 2026-04-28 07:54 | 26.83161 | 68.75172 | 34630 ft | 461 kts | 21° |
| 2026-04-28 07:54 | 26.88822 | 68.78562 | 34629 ft | 461 kts | 21° |
| 2026-04-28 07:55 | 26.94438 | 68.81927 | 34628 ft | 461 kts | 21° |
| 2026-04-28 07:55 | 27.00094 | 68.85328 | 34628 ft | 461 kts | 21° |
| 2026-04-28 07:56 | 27.05755 | 68.88733 | 34624 ft | 461 kts | 21° |
| 2026-04-28 07:56 | 27.11432 | 68.92145 | 34625 ft | 462 kts | 21° |
| 2026-04-28 07:57 | 27.17070 | 68.95539 | 34627 ft | 462 kts | 21° |
| 2026-04-28 07:57 | 27.21791 | 68.98383 | 34628 ft | 462 kts | 21° |
| 2026-04-28 07:58 | 27.27463 | 69.01804 | 34627 ft | 462 kts | 22° |
| 2026-04-28 07:58 | 27.33135 | 69.05225 | 34649 ft | 462 kts | 21° |
| 2026-04-28 07:59 | 27.38776 | 69.08638 | 34626 ft | 463 kts | 21° |
| 2026-04-28 07:59 | 27.44460 | 69.12076 | 34628 ft | 463 kts | 21° |
| 2026-04-28 08:00 | 27.50146 | 69.15502 | 34634 ft | 463 kts | 21° |
| 2026-04-28 08:00 | 27.55778 | 69.18919 | 34639 ft | 463 kts | 21° |
| 2026-04-28 08:01 | 27.61470 | 69.22367 | 34631 ft | 464 kts | 22° |
| 2026-04-28 08:01 | 27.67176 | 69.25829 | 34634 ft | 465 kts | 22° |
| 2026-04-28 08:02 | 27.72856 | 69.29276 | 34639 ft | 466 kts | 22° |
| 2026-04-28 08:02 | 27.78573 | 69.32755 | 34645 ft | 466 kts | 22° |
| 2026-04-28 08:03 | 27.84295 | 69.36237 | 34643 ft | 466 kts | 22° |
| 2026-04-28 08:03 | 27.89988 | 69.39701 | 34653 ft | 466 kts | 22° |
| 2026-04-28 08:04 | 27.95705 | 69.43193 | 34677 ft | 467 kts | 22° |
| 2026-04-28 08:04 | 28.01398 | 69.46673 | 34656 ft | 468 kts | 22° |
| 2026-04-28 08:05 | 28.07140 | 69.50188 | 34658 ft | 468 kts | 22° |
| 2026-04-28 08:05 | 28.12870 | 69.53697 | 34660 ft | 468 kts | 22° |
| 2026-04-28 08:06 | 28.18562 | 69.57186 | 34664 ft | 467 kts | 22° |
| 2026-04-28 08:06 | 28.24293 | 69.60703 | 34664 ft | 468 kts | 22° |
| 2026-04-28 08:07 | 28.30027 | 69.64234 | 34667 ft | 468 kts | 22° |
| 2026-04-28 08:07 | 28.35768 | 69.67775 | 34670 ft | 469 kts | 22° |
| 2026-04-28 08:08 | 28.41461 | 69.71294 | 34676 ft | 469 kts | 22° |
| 2026-04-28 08:08 | 28.47196 | 69.74828 | 34676 ft | 469 kts | 22° |
| 2026-04-28 08:09 | 28.52936 | 69.78363 | 34684 ft | 469 kts | 22° |
| 2026-04-28 08:09 | 28.58702 | 69.81884 | 34681 ft | 470 kts | 22° |
| 2026-04-28 08:10 | 28.64461 | 69.85332 | 34695 ft | 470 kts | 22° |
| 2026-04-28 08:10 | 28.70258 | 69.88804 | 34693 ft | 469 kts | 21° |
| 2026-04-28 08:11 | 28.76039 | 69.92288 | 34700 ft | 469 kts | 22° |
| 2026-04-28 08:11 | 28.81764 | 69.95751 | 34695 ft | 469 kts | 22° |
| 2026-04-28 08:12 | 28.87551 | 69.99250 | 34717 ft | 470 kts | 21° |
| 2026-04-28 08:12 | 28.93328 | 70.02742 | 34703 ft | 474 kts | 21° |
| 2026-04-28 08:13 | 28.99174 | 70.06289 | 34712 ft | 474 kts | 21° |
| 2026-04-28 08:13 | 29.04977 | 70.09813 | 34698 ft | 474 kts | 22° |
| 2026-04-28 08:14 | 29.10818 | 70.13371 | 34703 ft | 474 kts | 22° |
| 2026-04-28 08:14 | 29.16647 | 70.16919 | 34703 ft | 474 kts | 21° |
| 2026-04-28 08:15 | 29.22469 | 70.20465 | 34694 ft | 473 kts | 22° |
| 2026-04-28 08:15 | 29.28261 | 70.23997 | 34692 ft | 474 kts | 22° |
| 2026-04-28 08:16 | 29.34087 | 70.27562 | 34692 ft | 474 kts | 22° |
| 2026-04-28 08:16 | 29.39921 | 70.31132 | 34695 ft | 474 kts | 22° |
| 2026-04-28 08:17 | 29.45715 | 70.34678 | 34689 ft | 474 kts | 22° |
| 2026-04-28 08:17 | 29.51536 | 70.38250 | 34683 ft | 475 kts | 22° |
| 2026-04-28 08:18 | 29.57370 | 70.41832 | 34697 ft | 475 kts | 22° |
| 2026-04-28 08:18 | 29.63205 | 70.45418 | 34695 ft | 475 kts | 22° |
| 2026-04-28 08:19 | 29.69003 | 70.48986 | 34690 ft | 475 kts | 22° |
| 2026-04-28 08:19 | 29.74850 | 70.52588 | 34683 ft | 475 kts | 22° |
| 2026-04-28 08:20 | 29.80652 | 70.56168 | 34693 ft | 476 kts | 22° |
| 2026-04-28 08:20 | 29.86492 | 70.59786 | 34685 ft | 475 kts | 22° |
| 2026-04-28 08:21 | 29.92328 | 70.63401 | 34688 ft | 475 kts | 22° |
| 2026-04-28 08:21 | 29.98131 | 70.66993 | 34688 ft | 475 kts | 22° |
| 2026-04-28 08:22 | 30.03982 | 70.70615 | 34683 ft | 475 kts | 22° |
| 2026-04-28 08:22 | 30.09796 | 70.74235 | 34681 ft | 475 kts | 22° |
| 2026-04-28 08:23 | 30.15586 | 70.77843 | 34684 ft | 475 kts | 22° |
| 2026-04-28 08:23 | 30.21411 | 70.81470 | 34681 ft | 475 kts | 22° |
| 2026-04-28 08:24 | 30.27292 | 70.84975 | 34682 ft | 473 kts | 20° |
| 2026-04-28 08:24 | 30.33232 | 70.88253 | 34677 ft | 472 kts | 20° |
| 2026-04-28 08:25 | 30.39181 | 70.91520 | 34682 ft | 472 kts | 20° |
| 2026-04-28 08:26 | 30.48009 | 70.96508 | 34675 ft | 472 kts | 20° |
| 2026-04-28 08:26 | 30.53922 | 70.99883 | 34676 ft | 472 kts | 20° |
| 2026-04-28 08:27 | 30.59842 | 71.03237 | 34671 ft | 472 kts | 20° |
| 2026-04-28 08:27 | 30.65719 | 71.06570 | 34672 ft | 472 kts | 20° |
| 2026-04-28 08:28 | 30.71608 | 71.09928 | 34673 ft | 470 kts | 21° |
| 2026-04-28 08:28 | 30.77492 | 71.13282 | 34666 ft | 470 kts | 20° |
| 2026-04-28 08:29 | 30.83359 | 71.16629 | 34670 ft | 470 kts | 20° |
| 2026-04-28 08:29 | 30.89210 | 71.19968 | 34666 ft | 470 kts | 20° |
| 2026-04-28 08:30 | 30.95055 | 71.23307 | 34684 ft | 470 kts | 21° |
| 2026-04-28 08:30 | 31.00919 | 71.26666 | 34668 ft | 468 kts | 21° |
| 2026-04-28 08:31 | 31.06723 | 71.30004 | 34667 ft | 468 kts | 21° |
| 2026-04-28 08:31 | 31.12569 | 71.33365 | 34669 ft | 468 kts | 21° |
| 2026-04-28 08:32 | 31.18431 | 71.36731 | 34674 ft | 468 kts | 21° |
| 2026-04-28 08:32 | 31.24246 | 71.40069 | 34683 ft | 468 kts | 21° |
| 2026-04-28 08:33 | 31.30099 | 71.43439 | 34670 ft | 466 kts | 21° |
| 2026-04-28 08:33 | 31.35877 | 71.46776 | 34666 ft | 466 kts | 21° |
| 2026-04-28 08:34 | 31.41708 | 71.50153 | 34669 ft | 466 kts | 21° |
| 2026-04-28 08:34 | 31.47528 | 71.53530 | 34668 ft | 466 kts | 21° |
| 2026-04-28 08:35 | 31.53311 | 71.56881 | 34695 ft | 467 kts | 22° |
| 2026-04-28 08:35 | 31.59156 | 71.60266 | 34668 ft | 469 kts | 22° |
| 2026-04-28 08:36 | 31.65023 | 71.63679 | 34665 ft | 469 kts | 22° |
| 2026-04-28 08:36 | 31.70882 | 71.67085 | 34668 ft | 469 kts | 22° |
| 2026-04-28 08:37 | 31.76702 | 71.70471 | 34670 ft | 469 kts | 22° |
| 2026-04-28 08:37 | 31.82562 | 71.73897 | 34680 ft | 470 kts | 22° |
| 2026-04-28 08:38 | 31.88435 | 71.77332 | 34668 ft | 470 kts | 22° |
| 2026-04-28 08:38 | 31.94260 | 71.80747 | 34670 ft | 470 kts | 22° |
| 2026-04-28 08:39 | 32.00130 | 71.84194 | 34670 ft | 470 kts | 22° |
| 2026-04-28 08:39 | 32.06000 | 71.87639 | 34673 ft | 470 kts | 22° |
| 2026-04-28 08:40 | 32.11831 | 71.91066 | 34675 ft | 471 kts | 23° |
| 2026-04-28 08:40 | 32.17700 | 71.94527 | 34676 ft | 472 kts | 23° |
| 2026-04-28 08:41 | 32.23576 | 71.97991 | 34680 ft | 472 kts | 23° |
| 2026-04-28 08:41 | 32.29427 | 72.01452 | 34690 ft | 472 kts | 23° |
| 2026-04-28 08:42 | 32.35317 | 72.04938 | 34690 ft | 472 kts | 23° |
| 2026-04-28 08:42 | 32.41189 | 72.08419 | 34710 ft | 472 kts | 24° |
| 2026-04-28 08:43 | 32.46978 | 72.11979 | 34711 ft | 473 kts | 31° |
| 2026-04-28 08:43 | 32.52323 | 72.16581 | 34714 ft | 475 kts | 34° |
| 2026-04-28 08:44 | 32.56757 | 72.20460 | 34713 ft | 475 kts | 34° |
| 2026-04-28 08:44 | 32.62071 | 72.25110 | 34720 ft | 475 kts | 34° |
| 2026-04-28 08:44 | 32.64723 | 72.27428 | 34505 ft | 471 kts | 34° |
| 2026-04-28 08:45 | 32.67345 | 72.29725 | 34059 ft | 466 kts | 34° |
| 2026-04-28 08:45 | 32.69945 | 72.32003 | 33588 ft | 461 kts | 34° |
| 2026-04-28 08:45 | 32.72479 | 72.34222 | 33077 ft | 457 kts | 34° |
| 2026-04-28 08:45 | 32.75031 | 72.36457 | 32577 ft | 453 kts | 35° |
| 2026-04-28 08:46 | 32.77560 | 72.38679 | 32078 ft | 450 kts | 35° |
| 2026-04-28 08:46 | 32.80061 | 72.40883 | 31604 ft | 446 kts | 35° |
| 2026-04-28 08:46 | 32.82549 | 72.43076 | 31133 ft | 443 kts | 35° |
| 2026-04-28 08:46 | 32.85025 | 72.45256 | 30666 ft | 440 kts | 35° |
| 2026-04-28 08:47 | 32.87478 | 72.47414 | 30216 ft | 437 kts | 35° |
| 2026-04-28 08:47 | 32.89913 | 72.49558 | 29763 ft | 433 kts | 35° |
| 2026-04-28 08:47 | 32.92331 | 72.51689 | 29253 ft | 430 kts | 35° |
| 2026-04-28 08:47 | 32.94696 | 72.53776 | 28776 ft | 427 kts | 35° |
| 2026-04-28 08:48 | 32.97068 | 72.55873 | 28298 ft | 423 kts | 35° |
| 2026-04-28 08:48 | 32.99412 | 72.57945 | 27856 ft | 420 kts | 35° |
| 2026-04-28 08:48 | 33.01756 | 72.60018 | 27407 ft | 417 kts | 35° |
| 2026-04-28 08:48 | 33.04067 | 72.62094 | 26904 ft | 415 kts | 40° |
| 2026-04-28 08:49 | 33.06057 | 72.64543 | 26444 ft | 413 kts | 51° |
| 2026-04-28 08:49 | 33.07861 | 72.67190 | 25998 ft | 411 kts | 51° |
| 2026-04-28 08:49 | 33.09664 | 72.69840 | 25558 ft | 408 kts | 51° |
| 2026-04-28 08:49 | 33.11446 | 72.72470 | 25130 ft | 406 kts | 51° |
| 2026-04-28 08:50 | 33.13211 | 72.75080 | 24704 ft | 403 kts | 51° |
| 2026-04-28 08:50 | 33.14943 | 72.77642 | 24288 ft | 401 kts | 51° |
| 2026-04-28 08:50 | 33.16696 | 72.80233 | 23872 ft | 398 kts | 50° |
| 2026-04-28 08:50 | 33.18438 | 72.82804 | 23459 ft | 396 kts | 50° |
| 2026-04-28 08:51 | 33.20143 | 72.85319 | 23013 ft | 393 kts | 50° |
| 2026-04-28 08:51 | 33.21868 | 72.87865 | 22533 ft | 391 kts | 50° |
| 2026-04-28 08:51 | 33.23568 | 72.90381 | 22090 ft | 389 kts | 50° |
| 2026-04-28 08:51 | 33.25266 | 72.92897 | 21699 ft | 386 kts | 50° |
| 2026-04-28 08:52 | 33.26932 | 72.95369 | 21480 ft | 378 kts | 51° |
| 2026-04-28 08:52 | 33.28560 | 72.97783 | 21125 ft | 376 kts | 50° |
| 2026-04-28 08:52 | 33.30198 | 73.00216 | 20769 ft | 373 kts | 51° |
| 2026-04-28 08:52 | 33.31825 | 73.02632 | 20387 ft | 370 kts | 51° |
| 2026-04-28 08:53 | 33.33401 | 73.04973 | 20240 ft | 360 kts | 50° |
| 2026-04-28 08:53 | 33.34952 | 73.07283 | 20098 ft | 350 kts | 51° |
| 2026-04-28 08:53 | 33.36455 | 73.09522 | 19990 ft | 340 kts | 51° |
| 2026-04-28 08:53 | 33.37916 | 73.11700 | 19823 ft | 332 kts | 50° |
| 2026-04-28 08:54 | 33.39342 | 73.13823 | 19543 ft | 328 kts | 50° |
| 2026-04-28 08:54 | 33.40772 | 73.15939 | 19235 ft | 326 kts | 47° |
| 2026-04-28 08:54 | 33.42503 | 73.17641 | 18908 ft | 319 kts | 23° |
| 2026-04-28 08:54 | 33.44562 | 73.18382 | 18580 ft | 309 kts | 359° |
| 2026-04-28 08:55 | 33.46667 | 73.18195 | 18229 ft | 299 kts | 340° |
| 2026-04-28 08:55 | 33.48568 | 73.17272 | 17904 ft | 290 kts | 322° |
| 2026-04-28 08:55 | 33.50123 | 73.15813 | 17554 ft | 281 kts | 308° |
| 2026-04-28 08:55 | 33.51284 | 73.13974 | 17223 ft | 274 kts | 294° |
| 2026-04-28 08:56 | 33.52009 | 73.11894 | 16890 ft | 268 kts | 281° |
| 2026-04-28 08:56 | 33.52278 | 73.09733 | 16567 ft | 263 kts | 268° |
| 2026-04-28 08:56 | 33.52097 | 73.07559 | 16245 ft | 260 kts | 255° |
| 2026-04-28 08:56 | 33.51490 | 73.05525 | 15920 ft | 259 kts | 243° |
| 2026-04-28 08:57 | 33.50500 | 73.03731 | 15601 ft | 259 kts | 230° |
| 2026-04-28 08:57 | 33.49175 | 73.02265 | 15298 ft | 260 kts | 217° |
| 2026-04-28 08:57 | 33.47579 | 73.01222 | 14992 ft | 263 kts | 204° |
| 2026-04-28 08:57 | 33.45802 | 73.00673 | 14698 ft | 267 kts | 191° |
| 2026-04-28 08:58 | 33.43956 | 73.00617 | 14391 ft | 270 kts | 181° |
| 2026-04-28 08:58 | 33.42053 | 73.00811 | 14092 ft | 272 kts | 178° |
| 2026-04-28 08:58 | 33.40202 | 73.01097 | 13832 ft | 271 kts | 176° |
| 2026-04-28 08:58 | 33.38327 | 73.01417 | 13754 ft | 271 kts | 176° |
| 2026-04-28 08:59 | 33.36446 | 73.01736 | 13759 ft | 272 kts | 176° |
| 2026-04-28 08:59 | 33.34566 | 73.02046 | 13758 ft | 272 kts | 177° |
| 2026-04-28 08:59 | 33.32685 | 73.02347 | 13755 ft | 272 kts | 177° |
| 2026-04-28 08:59 | 33.30824 | 73.02637 | 13752 ft | 272 kts | 177° |
| 2026-04-28 09:00 | 33.28958 | 73.03095 | 13745 ft | 277 kts | 164° |
| 2026-04-28 09:00 | 33.27240 | 73.04198 | 13747 ft | 285 kts | 146° |
| 2026-04-28 09:00 | 33.25868 | 73.05943 | 13746 ft | 292 kts | 126° |
| 2026-04-28 09:00 | 33.25041 | 73.08171 | 13740 ft | 297 kts | 105° |
| 2026-04-28 09:01 | 33.24876 | 73.10645 | 13741 ft | 300 kts | 84° |
| 2026-04-28 09:01 | 33.25412 | 73.13047 | 13736 ft | 300 kts | 63° |
| 2026-04-28 09:01 | 33.26577 | 73.15090 | 13739 ft | 297 kts | 42° |
| 2026-04-28 09:01 | 33.28215 | 73.16542 | 13741 ft | 291 kts | 21° |
| 2026-04-28 09:02 | 33.30100 | 73.17262 | 13737 ft | 284 kts | 2° |
| 2026-04-28 09:02 | 33.32056 | 73.17295 | 13743 ft | 280 kts | 351° |
| 2026-04-28 09:02 | 33.34002 | 73.17078 | 13740 ft | 280 kts | 348° |
| 2026-04-28 09:02 | 33.35936 | 73.16774 | 13739 ft | 279 kts | 347° |
| 2026-04-28 09:03 | 33.37840 | 73.16448 | 13745 ft | 279 kts | 347° |
| 2026-04-28 09:03 | 33.39772 | 73.16120 | 13745 ft | 279 kts | 347° |
| 2026-04-28 09:03 | 33.41668 | 73.15686 | 13741 ft | 274 kts | 334° |
| 2026-04-28 09:03 | 33.43258 | 73.14515 | 13744 ft | 265 kts | 310° |
| 2026-04-28 09:04 | 33.44292 | 73.12733 | 13741 ft | 258 kts | 288° |
| 2026-04-28 09:04 | 33.44655 | 73.10658 | 13758 ft | 254 kts | 267° |
| 2026-04-28 09:04 | 33.44337 | 73.08621 | 13760 ft | 254 kts | 247° |
| 2026-04-28 09:04 | 33.43378 | 73.06852 | 13761 ft | 256 kts | 226° |
| 2026-04-28 09:05 | 33.41901 | 73.05649 | 13762 ft | 261 kts | 205° |
| 2026-04-28 09:05 | 33.40104 | 73.05232 | 13762 ft | 269 kts | 182° |
| 2026-04-28 09:05 | 33.38225 | 73.05407 | 13761 ft | 272 kts | 178° |
| 2026-04-28 09:05 | 33.36348 | 73.05682 | 13758 ft | 272 kts | 177° |
| 2026-04-28 09:06 | 33.34466 | 73.05990 | 13754 ft | 273 kts | 176° |
| 2026-04-28 09:06 | 33.32584 | 73.06304 | 13752 ft | 273 kts | 176° |
| 2026-04-28 09:06 | 33.30728 | 73.06816 | 13746 ft | 278 kts | 159° |
| 2026-04-28 09:06 | 33.29145 | 73.08188 | 13743 ft | 288 kts | 134° |
| 2026-04-28 09:07 | 33.28180 | 73.10301 | 13740 ft | 296 kts | 106° |
| 2026-04-28 09:07 | 33.28089 | 73.12734 | 13739 ft | 299 kts | 77° |
| 2026-04-28 09:07 | 33.28920 | 73.14993 | 13739 ft | 297 kts | 49° |
| 2026-04-28 09:07 | 33.30482 | 73.16550 | 13738 ft | 290 kts | 20° |
| 2026-04-28 09:08 | 33.32392 | 73.17119 | 13742 ft | 281 kts | 355° |
| 2026-04-28 09:08 | 33.34315 | 73.16951 | 13741 ft | 279 kts | 349° |
| 2026-04-28 09:08 | 33.36246 | 73.16676 | 13739 ft | 279 kts | 348° |
| 2026-04-28 09:08 | 33.38174 | 73.16371 | 13742 ft | 279 kts | 347° |
| 2026-04-28 09:09 | 33.40106 | 73.16061 | 13742 ft | 279 kts | 347° |
| 2026-04-28 09:09 | 33.41977 | 73.15540 | 13740 ft | 272 kts | 329° |
| 2026-04-28 09:09 | 33.43477 | 73.14246 | 13741 ft | 263 kts | 307° |
| 2026-04-28 09:09 | 33.44400 | 73.12397 | 13755 ft | 257 kts | 285° |
| 2026-04-28 09:10 | 33.44641 | 73.10305 | 13760 ft | 254 kts | 264° |
| 2026-04-28 09:10 | 33.44205 | 73.08301 | 13762 ft | 254 kts | 243° |
| 2026-04-28 09:10 | 33.43141 | 73.06618 | 13762 ft | 256 kts | 222° |
| 2026-04-28 09:10 | 33.41587 | 73.05546 | 13762 ft | 262 kts | 200° |
| 2026-04-28 09:11 | 33.39758 | 73.05283 | 13761 ft | 270 kts | 180° |
| 2026-04-28 09:11 | 33.37872 | 73.05492 | 13758 ft | 272 kts | 178° |
| 2026-04-28 09:11 | 33.35989 | 73.05778 | 13756 ft | 273 kts | 177° |
| 2026-04-28 09:11 | 33.34102 | 73.06086 | 13753 ft | 273 kts | 176° |
| 2026-04-28 09:12 | 33.32244 | 73.06390 | 13751 ft | 273 kts | 176° |
| 2026-04-28 09:12 | 33.30406 | 73.07031 | 13744 ft | 280 kts | 154° |
| 2026-04-28 09:12 | 33.28917 | 73.08571 | 13741 ft | 290 kts | 128° |
| 2026-04-28 09:12 | 33.28111 | 73.10791 | 13737 ft | 297 kts | 100° |
| 2026-04-28 09:13 | 33.28210 | 73.13255 | 13738 ft | 299 kts | 71° |
| 2026-04-28 09:13 | 33.29213 | 73.15395 | 13737 ft | 296 kts | 43° |
| 2026-04-28 09:13 | 33.30858 | 73.16747 | 13735 ft | 288 kts | 15° |
| 2026-04-28 09:13 | 33.32797 | 73.17114 | 13737 ft | 279 kts | 351° |
| 2026-04-28 09:14 | 33.34736 | 73.16895 | 13737 ft | 279 kts | 348° |
| 2026-04-28 09:14 | 33.36661 | 73.16609 | 13745 ft | 279 kts | 347° |
| 2026-04-28 09:14 | 33.38591 | 73.16302 | 13745 ft | 279 kts | 347° |
| 2026-04-28 09:14 | 33.40497 | 73.15997 | 13744 ft | 279 kts | 347° |
| 2026-04-28 09:15 | 33.42319 | 73.15340 | 13740 ft | 270 kts | 325° |
| 2026-04-28 09:15 | 33.43717 | 73.13908 | 13741 ft | 261 kts | 302° |
| 2026-04-28 09:15 | 33.44504 | 73.11992 | 13756 ft | 256 kts | 281° |
| 2026-04-28 09:15 | 33.44607 | 73.09889 | 13759 ft | 253 kts | 259° |
| 2026-04-28 09:16 | 33.44028 | 73.07911 | 13761 ft | 254 kts | 239° |
| 2026-04-28 09:16 | 33.42847 | 73.06337 | 13761 ft | 257 kts | 218° |
| 2026-04-28 09:16 | 33.41214 | 73.05419 | 13760 ft | 264 kts | 196° |
| 2026-04-28 09:16 | 33.39375 | 73.05311 | 13519 ft | 268 kts | 179° |
| 2026-04-28 09:17 | 33.37527 | 73.05544 | 13181 ft | 269 kts | 177° |
| 2026-04-28 09:17 | 33.35666 | 73.05836 | 12865 ft | 268 kts | 176° |
| 2026-04-28 09:17 | 33.33819 | 73.06140 | 12555 ft | 267 kts | 176° |
| 2026-04-28 09:17 | 33.31981 | 73.06443 | 12264 ft | 266 kts | 174° |
| 2026-04-28 09:18 | 33.30241 | 73.07158 | 11979 ft | 270 kts | 151° |
| 2026-04-28 09:18 | 33.28858 | 73.08699 | 11646 ft | 276 kts | 126° |
| 2026-04-28 09:18 | 33.28123 | 73.10783 | 11325 ft | 280 kts | 101° |
| 2026-04-28 09:18 | 33.28180 | 73.13082 | 11017 ft | 280 kts | 75° |
| 2026-04-28 09:19 | 33.29045 | 73.15143 | 10737 ft | 278 kts | 48° |
| 2026-04-28 09:19 | 33.30535 | 73.16561 | 10476 ft | 273 kts | 22° |
| 2026-04-28 09:19 | 33.32345 | 73.17117 | 10188 ft | 268 kts | 358° |
| 2026-04-28 09:19 | 33.34207 | 73.16981 | 9828 ft | 267 kts | 352° |
| 2026-04-28 09:20 | 33.36032 | 73.16724 | 9487 ft | 266 kts | 351° |
| 2026-04-28 09:20 | 33.37868 | 73.16430 | 9141 ft | 265 kts | 351° |
| 2026-04-28 09:20 | 33.39678 | 73.16135 | 8771 ft | 263 kts | 351° |
| 2026-04-28 09:20 | 33.41472 | 73.15756 | 8226 ft | 259 kts | 340° |
| 2026-04-28 09:21 | 33.43038 | 73.14636 | 7216 ft | 271 kts | 310° |
| 2026-04-28 09:21 | 33.44059 | 73.12806 | 6805 ft | 258 kts | 301° |
| 2026-04-28 09:21 | 33.45164 | 73.11167 | 6356 ft | 253 kts | 313° |
| 2026-04-28 09:21 | 33.46412 | 73.09694 | 5822 ft | 252 kts | 316° |
| 2026-04-28 09:22 | 33.47700 | 73.08263 | 5297 ft | 250 kts | 317° |
| 2026-04-28 09:22 | 33.48947 | 73.06884 | 4855 ft | 244 kts | 317° |
| 2026-04-28 09:22 | 33.50183 | 73.05523 | 4422 ft | 240 kts | 317° |
| 2026-04-28 09:22 | 33.51245 | 73.03995 | 4064 ft | 237 kts | 296° |
| 2026-04-28 09:23 | 33.51724 | 73.02176 | 3945 ft | 226 kts | 280° |
| 2026-04-28 09:23 | 33.52010 | 73.00357 | 3846 ft | 218 kts | 279° |
| 2026-04-28 09:23 | 33.52282 | 72.98624 | 3825 ft | 202 kts | 279° |
| 2026-04-28 09:23 | 33.52534 | 72.97030 | 3718 ft | 190 kts | 279° |
| 2026-04-28 09:24 | 33.52776 | 72.95497 | 3514 ft | 184 kts | 279° |
| 2026-04-28 09:24 | 33.53006 | 72.94038 | 3292 ft | 176 kts | 285° |
| 2026-04-28 09:24 | 33.53226 | 72.92632 | 3098 ft | 164 kts | 282° |
| 2026-04-28 09:24 | 33.53430 | 72.91345 | 2916 ft | 159 kts | 286° |
| 2026-04-28 09:25 | 33.53625 | 72.90101 | 2706 ft | 148 kts | 286° |
| 2026-04-28 09:25 | 33.53822 | 72.88857 | 2516 ft | 148 kts | 286° |
| 2026-04-28 09:25 | 33.54013 | 72.87648 | 2345 ft | 150 kts | 283° |
| 2026-04-28 09:25 | 33.54204 | 72.86434 | 2141 ft | 150 kts | 283° |
| 2026-04-28 09:26 | 33.54399 | 72.85201 | 1936 ft | 152 kts | 282° |
| 2026-04-28 09:26 | 33.54591 | 72.83958 | 1770 ft | 146 kts | 283° |
| 2026-04-28 09:26 | 33.54753 | 72.82932 | 1762 ft | 103 kts | 280° |
| 2026-04-28 09:26 | 33.54824 | 72.82481 | 1749 ft | 24 kts | 281° |
| 2026-04-28 09:27 | 33.54966 | 72.82427 | 1750 ft | 13 kts | 11° |
| 2026-04-28 09:27 | 33.55072 | 72.82451 | 1762 ft | 9 kts | 11° |
| 2026-04-28 09:27 | 33.55110 | 72.82459 | 1768 ft | 2 kts | 11° |
| 2026-04-28 09:28 | 33.55112 | 72.82460 | 1768 ft | 0 kts | 11° |
| 2026-04-28 09:28 | 33.55114 | 72.82460 | 1767 ft | 1 kts | 11° |
| 2026-04-28 09:28 | 33.55133 | 72.82465 | 1768 ft | 5 kts | 11° |
| 2026-04-28 09:28 | 33.55187 | 72.82478 | 1769 ft | 9 kts | 16° |
| 2026-04-28 09:29 | 33.55204 | 72.82543 | 1768 ft | 10 kts | 90° |
| 2026-04-28 09:29 | 33.55246 | 72.82598 | 1769 ft | 9 kts | 6° |
| 2026-04-28 09:29 | 33.55305 | 72.82611 | 1771 ft | 9 kts | 11° |
| 2026-04-28 09:29 | 33.55368 | 72.82625 | 1770 ft | 10 kts | 11° |
| 2026-04-28 09:30 | 33.55424 | 72.82673 | 1770 ft | 11 kts | 55° |
| 2026-04-28 09:30 | 33.55471 | 72.82753 | 1770 ft | 12 kts | 55° |
| 2026-04-28 09:30 | 33.55521 | 72.82840 | 1770 ft | 13 kts | 55° |
| 2026-04-28 09:30 | 33.55572 | 72.82928 | 1771 ft | 13 kts | 55° |
| 2026-04-28 09:31 | 33.55621 | 72.83014 | 1770 ft | 12 kts | 55° |
| 2026-04-28 09:31 | 33.55667 | 72.83073 | 1772 ft | 8 kts | 26° |
| 2026-04-28 09:31 | 33.55718 | 72.83087 | 1771 ft | 7 kts | 9° |
| 2026-04-28 09:31 | 33.55764 | 72.83095 | 1771 ft | 6 kts | 9° |
| 2026-04-28 09:32 | 33.55788 | 72.83122 | 1770 ft | 4 kts | 76° |
| 2026-04-28 09:32 | 33.55786 | 72.83136 | 1771 ft | 0 kts | 102° |
| 2026-04-28 09:32 | 33.55784 | 72.83146 | 1771 ft | 3 kts | 107° |
| 2026-04-28 09:32 | 33.55780 | 72.83160 | 1771 ft | 2 kts | 105° |
| 2026-04-28 09:33 | 33.55777 | 72.83176 | 1770 ft | 2 kts | 101° |
| 2026-04-28 09:33 | 33.55775 | 72.83193 | 1770 ft | 0 kts | 98° |
| 2026-04-28 09:33 | 33.55775 | 72.83197 | 1770 ft | 0 kts | 98° |
| 2026-04-28 09:33 | 33.55774 | 72.83200 | 1770 ft | 0 kts | 98° |